WetterOnline ( https://www.wetteronline.de )

Wetter aktuell PLZ Bereich 19300

Aktuelles Wetter: Lüchow (18m)

6-stündlich | Neueste Meldungen
Ortszeit Temperatur Wetter
Mi, 23.10. 20:00 12.4° C wolkig
Mi, 23.10. 14:00 14.1° C leicht bewölkt
Mi, 23.10. 8:00 5.8° C leicht bewölkt
Mi, 23.10. 2:00 5.5° C Nebel
Di, 22.10. 20:00 10.8° C wolkig
Di, 22.10. 14:00 14.3° C wolkig
Di, 22.10. 8:00 9.1° C bedeckt
Di, 22.10. 2:00 10.4° C bedeckt
Ortszeit Temperatur Wetter
Mi, 23.10. 22:00 12.8° C wolkig
Mi, 23.10. 21:50 12.8° C wolkig
Mi, 23.10. 21:40 12.9° C wolkig
Mi, 23.10. 21:30 13.1° C wolkig
Mi, 23.10. 21:20 13.1° C wolkig
Mi, 23.10. 21:10 12.9° C wolkig
Mi, 23.10. 21:00 12.6° C leicht bewölkt
Mi, 23.10. 20:30 12.4° C wolkenlos
Mi, 23.10. 20:00 12.4° C wolkig
Mi, 23.10. 19:30 12.8° C wolkig
Mi, 23.10. 19:00 13.5° C wolkig
Ortszeit Relative Feuchte Sichtweite
Mi, 23.10. 20:00 90% 12 km
Mi, 23.10. 14:00 77% 20 km
Mi, 23.10. 8:00 99% 1.5 km
Mi, 23.10. 2:00 98% 100 m
Di, 22.10. 20:00 90% 29 km
Di, 22.10. 14:00 77% 65 km
Di, 22.10. 8:00 97% 27 km
Di, 22.10. 2:00 99% 15 km
Ortszeit Relative Feuchte Sichtweite
Mi, 23.10. 22:00 89% 10 km
Mi, 23.10. 21:50 89% -
Mi, 23.10. 21:40 90% -
Mi, 23.10. 21:30 88% 1.9 km
Mi, 23.10. 21:20 88% -
Mi, 23.10. 21:10 89% -
Mi, 23.10. 21:00 91% 3.6 km
Mi, 23.10. 20:30 90% 12 km
Mi, 23.10. 20:00 90% 12 km
Mi, 23.10. 19:30 87% 13 km
Mi, 23.10. 19:00 85% 11 km
Ortszeit Niederschlagsmenge Niederschlagsart
Mi, 23.10. 20:00 0.0 l/m2 in 12 Std. -
Mi, 23.10. 14:00 0.0 l/m2 in 6 Std. -
Mi, 23.10. 8:00 0.0 l/m2 in 12 Std. -
Mi, 23.10. 2:00 0.0 l/m2 in 6 Std. -
Di, 22.10. 20:00 0.0 l/m2 in 12 Std. -
Di, 22.10. 14:00 0.0 l/m2 in 6 Std. -
Di, 22.10. 8:00 0.0 l/m2 in 12 Std. -
Di, 22.10. 2:00 0.0 l/m2 in 6 Std. -
Ortszeit Niederschlagsmenge Niederschlagsart
Mi, 23.10. 22:00 0.0 l/m2 in 1 Std. -
Mi, 23.10. 21:50 keine Meldung -
Mi, 23.10. 21:40 keine Meldung -
Mi, 23.10. 21:30 0.0 l/m2 in 1 Std. -
Mi, 23.10. 21:20 keine Meldung -
Mi, 23.10. 21:10 keine Meldung -
Mi, 23.10. 21:00 0.0 l/m2 in 1 Std. -
Mi, 23.10. 20:30 0.0 l/m2 in 1 Std. -
Mi, 23.10. 20:00 0.0 l/m2 in 1 Std. -
Mi, 23.10. 19:30 0.0 l/m2 in 1 Std. -
Mi, 23.10. 19:00 0.0 l/m2 in 1 Std. -
Ortszeit Stärke Spitze Richtung
km/h Bft. km/h Grad Sektor
Mi, 23.10. 20:00 6 1 20 70° O
Mi, 23.10. 14:00 11 2 18 70° O
Mi, 23.10. 8:00 4 1 7 20° N
Mi, 23.10. 2:00 0 0 14 - -
Di, 22.10. 20:00 4 1 22 160° S
Di, 22.10. 14:00 13 3 26 220° SW
Di, 22.10. 8:00 4 1 11 160° S
Di, 22.10. 2:00 4 1 11 240° SW
Ortszeit Stärke Spitze Richtung
km/h Bft. km/h Grad Sektor
Mi, 23.10. 22:00 4 1 22 120° SO
Mi, 23.10. 21:50 4 1 - 120° SO
Mi, 23.10. 21:40 4 1 - 90° O
Mi, 23.10. 21:30 9 2 20 110° O
Mi, 23.10. 21:20 9 2 - 110° O
Mi, 23.10. 21:10 9 2 - 100° O
Mi, 23.10. 21:00 7 2 14 100° O
Mi, 23.10. 20:30 4 1 11 80° O
Mi, 23.10. 20:00 6 1 9 70° O
Mi, 23.10. 19:30 6 1 9 70° O
Mi, 23.10. 19:00 6 1 17 80° O
Ortszeit Untergrenze Bedeckung Gattung
total tief tief mittel hoch
Mi, 23.10. 20:00 9000 m 7/8 0/8 - - -
Mi, 23.10. 14:00 10500 m 7/8 0/8 - - -
Mi, 23.10. 8:00 3600 m 2/8 2/8 - - -
Mi, 23.10. 2:00 3900 m 6/8 3/8 - - -
Di, 22.10. 20:00 810 m 7/8 1/8 - - -
Di, 22.10. 14:00 1080 m 8/8 3/8 - - -
Di, 22.10. 8:00 3300 m 8/8 8/8 - - -
Di, 22.10. 2:00 4200 m 8/8 8/8 - - -
Ortszeit Bedeckungsgrad in Achtel und Wolkenuntergrenze
Mi, 23.10. 22:00 7(10500m) 7(10500m)
Mi, 23.10. 21:50 7(10500m) 7(10500m)
Mi, 23.10. 21:40 8(10500m) 8(10500m)
Mi, 23.10. 21:30 8(10500m) 8(10500m)
Mi, 23.10. 21:20 8(10500m)
Mi, 23.10. 21:10 7(10500m) 8(10500m)
Mi, 23.10. 21:00 6(10500m) 7(10500m)
Mi, 23.10. 20:30 keine Wolken
Mi, 23.10. 20:00 7(9000m) 7(10500m)
Mi, 23.10. 19:30 8(9000m) 8(10500m) 8(10500m)
Mi, 23.10. 19:00 8(10500m) 8(10500m)
Ortszeit Luftdruck NN (hPa) Tendenz (hPa in 3 Std.)
Mi, 23.10. 20:00 1016 - 0,6
Mi, 23.10. 14:00 1019 - 2,8
Mi, 23.10. 8:00 1022 - 0,9
Mi, 23.10. 2:00 1024 - 0,6
Di, 22.10. 20:00 1025 + 0,7
Di, 22.10. 14:00 1024 + 0,2
Di, 22.10. 8:00 1023 + 0,6
Di, 22.10. 2:00 1022 + 1,4
Ortszeit Luftdruck NN (hPa) Tendenz (hPa in 3 Std.)
Mi, 23.10. 22:00 1015 - 1,2
Mi, 23.10. 21:50 1015 keine Meldung
Mi, 23.10. 21:40 1015 keine Meldung
Mi, 23.10. 21:30 1015 - 1,3
Mi, 23.10. 21:20 1015 keine Meldung
Mi, 23.10. 21:10 1015 keine Meldung
Mi, 23.10. 21:00 1015 - 1,2
Mi, 23.10. 20:30 1016 - 0,6
Mi, 23.10. 20:00 1016 - 0,6
Mi, 23.10. 19:30 1016 - 0,8
Mi, 23.10. 19:00 1016 - 1,2
Ortszeit Schneehöhe (cm)
Mi, 23.10. 20:00 0
Mi, 23.10. 14:00 0
Mi, 23.10. 8:00 0
Mi, 23.10. 2:00 0
Di, 22.10. 20:00 0
Di, 22.10. 14:00 0
Di, 22.10. 8:00 0
Di, 22.10. 2:00 0
Ortszeit Schneehöhe (cm)
Mi, 23.10. 22:00 0
Mi, 23.10. 21:50 0
Mi, 23.10. 21:40 0
Mi, 23.10. 21:30 0
Mi, 23.10. 21:20 0
Mi, 23.10. 21:10 0
Mi, 23.10. 21:00 0
Mi, 23.10. 20:30 0
Mi, 23.10. 20:00 0
Mi, 23.10. 19:30 0
Mi, 23.10. 19:00 0
Link zu dieser Seite / Seite empfehlen

Das Wetter in ...